Vida, Montana
Current Conditions -  °F | °C
As of 2:53 PM on Friday 24 Oct 2014 (Local Time) from KOLF Reporting Station
Clear Clear  
Wind Chill: 61°   Ceiling: Unl
Heat Index: 61°   Visibility: 10mi
Dew Point: 30°   Wind: 17mph
Humidity: 31%   Direction: 270°W
Pressure: 29.98"   Gusts: 24mph
Location:  47.83°N, 105.49°W
Report Text: KOLF 242053Z AUTO 27015G21KT 10SM CLR 16/M01 A2998 RMK AO2 PK WND 30029/1954 SLP156 T01611011 53001
Loading
Personal Weather Stations






























Interactive Weather Map
Tropical Storm Tracking
New forecast layout! Learn more

10-Day Weather Forecast

Advertisements
Track Severe Weather on mobile